Duluth, MN (55701)

3:35 AM CST on February 08, 2016 (GMT -0600)
Chester Park WX | | Change Station
CLOSE
Current Station
Personal Weather Station
Location: Duluth, MN
Elevation: 1040 ft
Nearby Weather Stations

Elev 1040 ft 46.81 °N, 92.08 °W | Updated 46 seconds ago

Snow
Snow
13.0 °F
Feels Like -1 °F
N
12.0
Wind Variable Wind from NW
Gusts 14.0 mph

Today
High -- | Low -- °F
--% Chance of Precip.
Yesterday
High -- | Low -- °F
Precip. -- in
Pressure 29.67 in
Visibility 0.8 miles
Clouds
Windchill -1 °F
Dew Point 10 °F
Humidity 88%
Rainfall 0.00 in
Snow Depth Not available.
7:23 AM 5:21 PM
Waning Crescent, 0% visible
SPECI KDLH 080907Z 33017G26KT 3/4SM R09/5000VP6000FT -SN BLSN VV015 M12/M15 A2967 RMK AO2 PK WND 34026/0902 P0000 T11221150
Pressure 29.67 in
Visibility 0.8 miles
Clouds
Windchill -1 °F
Dew Point 10 °F
Humidity 88%
Rainfall 0.00 in
Snow Depth Not available.
7:23 AM 5:21 PM
Waning Crescent, 0% visible
SPECI KDLH 080907Z 33017G26KT 3/4SM R09/5000VP6000FT -SN BLSN VV015 M12/M15 A2967 RMK AO2 PK WND 34026/0902 P0000 T11221150

10-Day Weather Forecast

Almanac

Astronomy

Feb. 08, 2016 Rise Set
Actual Time
Civil Twilight
Nautical Twilight
Astronomical Twilight
Moon
Length of Visible Light
Length of Day
Tomorrow will be .
, % of the Moon is Illuminated

Today's Extremes

State Highs State Lows

Community

WunderPhotos

Upload Photos

1,891,412 photos uploaded!

WunderBlog® & News

Nearby

Air Quality

  Air Quality AQ Index Pollutant
Not available.

Snow Depth

Station Depth Elevation

Earthquake Activity

City Distance Mag. Time & Date
Minimum magnitude displayed is 2.5.

Coastal Water Temperatures

Place Temperature

Stations

Nearby Weather Stations

Station Location Temp. Windchill Dew Point Humidity Wind Precip. Elev Updated Type
                   

Watches & Warnings

There are currently no watches in effect.